createdAt,value
2022-12-08T00:00:31.259Z,23.17
2022-12-08T00:01:20.196Z,22.05
2022-12-08T00:02:07.344Z,22.20
2022-12-08T00:02:54.471Z,22.42
2022-12-08T00:03:42.322Z,23.42
2022-12-08T00:04:29.261Z,22.33
2022-12-08T00:05:35.056Z,23.48
2022-12-08T00:06:52.893Z,23.70
2022-12-08T00:07:58.691Z,22.87
2022-12-08T00:09:04.217Z,21.80
2022-12-08T00:09:51.011Z,22.35
2022-12-08T00:10:49.067Z,22.80
2022-12-08T00:11:36.951Z,23.50
2022-12-08T00:12:23.749Z,23.05
2022-12-08T00:14:11.494Z,21.45
2022-12-08T00:14:58.303Z,23.38
2022-12-08T00:15:45.151Z,21.48
2022-12-08T00:16:32.135Z,22.67
2022-12-08T00:17:19.100Z,22.17
2022-12-08T00:18:05.972Z,22.02
2022-12-08T00:18:52.860Z,23.08
2022-12-08T00:19:40.520Z,22.60
2022-12-08T00:20:27.386Z,22.40
2022-12-08T00:21:14.266Z,23.20
2022-12-08T00:22:01.888Z,22.95
2022-12-08T00:22:48.766Z,21.70
2022-12-08T00:23:35.565Z,23.60
2022-12-08T00:24:24.077Z,23.40
2022-12-08T00:25:10.979Z,21.62
2022-12-08T00:26:02.273Z,22.15
2022-12-08T00:26:49.349Z,21.83
2022-12-08T00:27:36.149Z,22.00
2022-12-08T00:28:23.098Z,22.98
2022-12-08T00:29:15.892Z,21.62
2022-12-08T00:30:05.698Z,21.52
2022-12-08T00:30:52.503Z,21.90
2022-12-08T00:31:39.527Z,22.27
2022-12-08T00:32:26.431Z,22.17
2022-12-08T00:33:13.273Z,22.92
2022-12-08T00:34:00.256Z,21.83
2022-12-08T00:34:47.018Z,22.05
2022-12-08T00:35:35.661Z,23.02
2022-12-08T00:36:25.639Z,22.17
2022-12-08T00:37:12.461Z,21.52
2022-12-08T00:38:00.968Z,22.15
2022-12-08T00:38:48.799Z,21.77
2022-12-08T00:39:35.698Z,21.67
2022-12-08T00:40:22.530Z,21.77
2022-12-08T00:41:13.515Z,20.92
2022-12-08T00:42:12.358Z,20.42
2022-12-08T00:42:59.228Z,21.02
2022-12-08T00:43:46.034Z,20.70
2022-12-08T00:44:32.885Z,22.45
2022-12-08T00:45:19.982Z,20.80
2022-12-08T00:46:06.919Z,21.75
2022-12-08T00:46:53.854Z,22.25
2022-12-08T00:47:40.766Z,20.67
2022-12-08T00:48:27.607Z,22.17
2022-12-08T00:49:15.377Z,21.80
2022-12-08T00:50:02.556Z,21.08
2022-12-08T00:50:49.706Z,22.08
2022-12-08T00:51:36.655Z,21.20
2022-12-08T00:52:23.585Z,20.70
2022-12-08T00:53:10.422Z,21.95
2022-12-08T00:53:57.247Z,21.15
2022-12-08T00:54:44.115Z,22.20
2022-12-08T00:55:30.944Z,20.65
2022-12-08T00:56:17.814Z,21.52
2022-12-08T00:57:04.761Z,21.00
2022-12-08T00:57:51.575Z,20.50
2022-12-08T00:58:38.328Z,19.65
2022-12-08T00:59:25.095Z,21.12
2022-12-08T01:00:12.572Z,22.10
2022-12-08T01:00:59.429Z,21.33
2022-12-08T01:01:47.396Z,20.88
2022-12-08T01:02:34.870Z,20.37
2022-12-08T01:03:21.722Z,20.15
2022-12-08T01:04:12.385Z,20.75
2022-12-08T01:05:45.807Z,19.40
2022-12-08T01:06:32.882Z,19.98
2022-12-08T01:07:19.724Z,20.80
2022-12-08T01:08:07.805Z,19.92
2022-12-08T01:08:54.630Z,19.83
2022-12-08T01:09:41.518Z,21.27
2022-12-08T01:10:28.411Z,20.88
2022-12-08T01:11:17.512Z,19.67
2022-12-08T01:12:04.972Z,20.33
2022-12-08T01:12:51.835Z,20.52
2022-12-08T01:13:39.158Z,20.20
2022-12-08T01:14:26.099Z,20.17
2022-12-08T01:15:12.991Z,20.60
2022-12-08T01:15:59.812Z,19.80
2022-12-08T01:16:46.912Z,19.00
2022-12-08T01:17:33.750Z,19.90
2022-12-08T01:18:20.624Z,19.75
2022-12-08T01:19:07.530Z,19.42
2022-12-08T01:19:54.407Z,19.75
2022-12-08T01:20:41.290Z,19.77
2022-12-08T01:21:28.550Z,19.83
2022-12-08T01:22:15.529Z,19.52
2022-12-08T01:23:02.294Z,20.00
2022-12-08T01:23:49.120Z,20.62
2022-12-08T01:24:35.972Z,19.70
2022-12-08T01:25:22.914Z,18.87
2022-12-08T01:26:11.593Z,19.85
2022-12-08T01:26:58.520Z,19.95
2022-12-08T01:27:45.367Z,19.80
2022-12-08T01:28:32.657Z,19.25
2022-12-08T01:29:19.693Z,19.42
2022-12-08T01:30:07.305Z,19.30
2022-12-08T01:30:54.400Z,19.98
2022-12-08T01:31:41.386Z,19.37
2022-12-08T01:32:28.195Z,20.50
2022-12-08T01:33:15.035Z,20.62
2022-12-08T01:34:01.872Z,19.12
2022-12-08T01:34:48.777Z,18.83
2022-12-08T01:35:35.635Z,19.67
2022-12-08T01:36:27.909Z,20.88
2022-12-08T01:37:14.816Z,20.42
2022-12-08T01:38:01.643Z,19.40
2022-12-08T01:38:48.792Z,19.80
2022-12-08T01:39:35.645Z,19.23
2022-12-08T01:40:22.569Z,20.17
2022-12-08T01:41:11.050Z,19.40
2022-12-08T01:41:57.887Z,19.42
2022-12-08T01:42:44.714Z,20.83
2022-12-08T01:43:49.430Z,19.65
2022-12-08T01:44:36.181Z,18.77
2022-12-08T01:45:27.128Z,20.08
2022-12-08T01:46:14.056Z,20.35
2022-12-08T01:47:00.969Z,20.33
2022-12-08T01:47:50.641Z,19.75
2022-12-08T01:48:37.589Z,19.80
2022-12-08T01:49:28.402Z,20.08
2022-12-08T01:50:17.487Z,19.10
2022-12-08T01:51:05.416Z,19.65
2022-12-08T01:51:56.954Z,19.05
2022-12-08T01:52:48.970Z,19.98
2022-12-08T01:53:35.803Z,19.83
2022-12-08T01:54:25.478Z,18.23
2022-12-08T01:55:23.083Z,18.90
2022-12-08T01:56:13.630Z,19.77
2022-12-08T01:57:10.803Z,19.50
2022-12-08T01:58:02.864Z,19.77
2022-12-08T01:58:52.062Z,19.80
2022-12-08T01:59:42.312Z,19.20
2022-12-08T02:00:29.107Z,19.23
2022-12-08T02:01:16.867Z,18.37
2022-12-08T02:02:03.867Z,19.33
2022-12-08T02:03:03.481Z,19.70
2022-12-08T02:04:01.509Z,17.50
2022-12-08T02:04:48.371Z,18.27
2022-12-08T02:05:37.167Z,18.60
2022-12-08T02:06:24.668Z,19.42
2022-12-08T02:07:12.761Z,19.48
2022-12-08T02:08:01.432Z,19.70
2022-12-08T02:08:50.055Z,18.55
2022-12-08T02:09:37.450Z,19.80
2022-12-08T02:10:28.023Z,18.23
2022-12-08T02:11:14.914Z,19.08
2022-12-08T02:12:01.840Z,20.08
2022-12-08T02:12:50.722Z,18.15
2022-12-08T02:13:38.159Z,17.55
2022-12-08T02:14:25.634Z,18.80
2022-12-08T02:15:12.598Z,17.60
2022-12-08T02:16:02.109Z,19.20
2022-12-08T02:17:00.599Z,18.73
2022-12-08T02:18:09.356Z,19.15
2022-12-08T02:19:31.438Z,18.27
2022-12-08T02:20:24.345Z,18.98
2022-12-08T02:21:49.755Z,17.90
2022-12-08T02:22:51.135Z,17.17
2022-12-08T02:23:56.571Z,17.77
2022-12-08T02:24:56.697Z,17.62
2022-12-08T02:26:17.673Z,17.42
2022-12-08T02:27:22.948Z,16.58
2022-12-08T02:28:28.113Z,16.85
2022-12-08T02:29:29.492Z,16.48
2022-12-08T02:30:26.729Z,16.55
2022-12-08T02:31:16.097Z,16.77
2022-12-08T02:32:20.987Z,16.23
2022-12-08T02:33:20.223Z,17.08
2022-12-08T02:34:23.786Z,16.33
2022-12-08T02:35:15.010Z,17.02
2022-12-08T02:36:07.597Z,18.30
2022-12-08T02:36:54.360Z,17.30
2022-12-08T02:37:50.305Z,16.80
2022-12-08T02:38:46.418Z,17.60
2022-12-08T02:40:14.215Z,16.58
2022-12-08T02:41:11.414Z,16.52
2022-12-08T02:42:12.884Z,17.48
2022-12-08T02:43:25.097Z,18.17
2022-12-08T02:44:25.169Z,18.15
2022-12-08T02:45:19.775Z,16.52
2022-12-08T02:46:12.134Z,17.90
2022-12-08T02:47:12.277Z,18.48
2022-12-08T02:47:59.691Z,17.02
2022-12-08T02:48:47.222Z,17.60
2022-12-08T02:49:35.820Z,17.73
2022-12-08T02:50:22.917Z,18.17
2022-12-08T02:51:09.904Z,17.92
2022-12-08T02:52:06.524Z,19.35
2022-12-08T02:52:53.383Z,18.55
2022-12-08T02:53:40.906Z,17.98
2022-12-08T02:54:27.724Z,17.77
2022-12-08T02:55:50.963Z,17.60
2022-12-08T02:56:52.072Z,17.73
2022-12-08T02:57:59.066Z,17.33
2022-12-08T02:59:24.410Z,18.33
2022-12-08T03:00:15.960Z,16.77
2022-12-08T03:01:11.874Z,17.42
2022-12-08T03:02:32.726Z,18.20
2022-12-08T03:03:33.086Z,17.10
2022-12-08T03:04:35.090Z,17.80
2022-12-08T03:05:37.174Z,18.85
2022-12-08T03:06:32.994Z,17.95
2022-12-08T03:07:32.273Z,16.92
2022-12-08T03:08:23.456Z,17.20
2022-12-08T03:09:28.711Z,16.85
2022-12-08T03:10:35.038Z,17.75
2022-12-08T03:11:28.383Z,18.20
2022-12-08T03:12:32.457Z,17.15
2022-12-08T03:13:24.182Z,16.50
2022-12-08T03:14:12.086Z,17.67
2022-12-08T03:15:03.890Z,18.48
2022-12-08T03:15:51.466Z,18.80
2022-12-08T03:16:40.783Z,18.98
2022-12-08T03:17:29.206Z,17.48
2022-12-08T03:18:17.675Z,16.60
2022-12-08T03:19:11.176Z,17.23
2022-12-08T03:20:02.343Z,17.65
2022-12-08T03:20:50.273Z,18.52
2022-12-08T03:21:37.896Z,17.60
2022-12-08T03:22:26.250Z,18.23
2022-12-08T03:23:14.729Z,18.10
2022-12-08T03:24:03.020Z,18.30
2022-12-08T03:24:50.035Z,17.60
2022-12-08T03:25:43.809Z,17.40
2022-12-08T03:26:51.147Z,16.40
2022-12-08T03:27:38.009Z,17.17
2022-12-08T03:28:25.134Z,17.10
2022-12-08T03:29:12.269Z,17.12
2022-12-08T03:30:01.362Z,18.23
2022-12-08T03:30:50.347Z,18.23
2022-12-08T03:31:40.670Z,16.95
2022-12-08T03:32:44.507Z,17.75
2022-12-08T03:33:35.165Z,17.02
2022-12-08T03:35:13.517Z,16.70
2022-12-08T03:36:02.233Z,16.90
2022-12-08T03:36:49.069Z,15.60
2022-12-08T03:37:37.129Z,17.15
2022-12-08T03:38:23.916Z,16.60
2022-12-08T03:39:11.596Z,17.17
2022-12-08T03:39:58.604Z,16.30
2022-12-08T03:41:05.686Z,18.20
2022-12-08T03:41:52.623Z,16.45
2022-12-08T03:42:39.504Z,16.05
2022-12-08T03:43:26.331Z,16.62
2022-12-08T03:44:13.238Z,16.17
2022-12-08T03:45:00.119Z,17.25
2022-12-08T03:45:46.957Z,17.73
2022-12-08T03:46:33.858Z,16.60
2022-12-08T03:47:20.656Z,18.42
2022-12-08T03:48:07.447Z,17.45
2022-12-08T03:48:54.281Z,17.35
2022-12-08T03:49:41.132Z,16.83
2022-12-08T03:50:28.040Z,16.58
2022-12-08T03:51:15.611Z,16.40
2022-12-08T03:52:02.517Z,16.60
2022-12-08T03:52:49.433Z,15.88
2022-12-08T03:53:36.306Z,17.67
2022-12-08T03:54:24.240Z,17.23
2022-12-08T03:55:11.107Z,16.33
2022-12-08T03:55:57.970Z,16.25
2022-12-08T03:56:44.844Z,16.92
2022-12-08T03:57:31.667Z,16.85
2022-12-08T03:58:18.530Z,16.15
2022-12-08T03:59:06.738Z,16.23
2022-12-08T03:59:53.507Z,15.63
2022-12-08T04:00:40.394Z,16.10
2022-12-08T04:01:27.719Z,16.42
2022-12-08T04:02:14.810Z,15.50
2022-12-08T04:03:01.855Z,17.33
2022-12-08T04:03:49.023Z,17.35
2022-12-08T04:04:35.853Z,16.52
2022-12-08T04:05:22.675Z,15.70
2022-12-08T04:06:09.621Z,17.85
2022-12-08T04:06:56.535Z,16.50
2022-12-08T04:07:43.796Z,17.23
2022-12-08T04:08:30.681Z,15.70
2022-12-08T04:09:17.884Z,16.73
2022-12-08T04:10:05.764Z,16.48
2022-12-08T04:10:52.848Z,16.60
2022-12-08T04:11:39.715Z,17.02
2022-12-08T04:12:26.621Z,16.52
2022-12-08T04:13:13.429Z,16.55
2022-12-08T04:14:00.306Z,18.05
2022-12-08T04:14:47.613Z,17.48
2022-12-08T04:15:34.420Z,15.98
2022-12-08T04:16:23.507Z,16.23
2022-12-08T04:17:10.398Z,15.95
2022-12-08T04:17:57.247Z,15.75
2022-12-08T04:18:44.192Z,15.35
2022-12-08T04:19:31.075Z,14.82
2022-12-08T04:20:17.879Z,17.92
2022-12-08T04:21:04.899Z,14.48
2022-12-08T04:21:51.756Z,15.35
2022-12-08T04:22:38.616Z,15.77
2022-12-08T04:23:25.617Z,15.48
2022-12-08T04:24:12.446Z,15.38
2022-12-08T04:24:59.353Z,15.85
2022-12-08T04:25:46.184Z,15.13
2022-12-08T04:26:33.035Z,15.40
2022-12-08T04:27:19.875Z,15.52
2022-12-08T04:28:06.941Z,15.35
2022-12-08T04:28:53.789Z,15.68
2022-12-08T04:29:40.595Z,15.20
2022-12-08T04:30:27.471Z,15.82
2022-12-08T04:31:14.473Z,15.73
2022-12-08T04:32:01.329Z,16.52
2022-12-08T04:32:48.144Z,15.77
2022-12-08T04:33:35.572Z,17.35
2022-12-08T04:34:22.538Z,16.52
2022-12-08T04:35:09.454Z,15.70
2022-12-08T04:35:56.302Z,16.40
2022-12-08T04:36:43.180Z,16.15
2022-12-08T04:37:30.134Z,15.02
2022-12-08T04:38:17.491Z,15.85
2022-12-08T04:39:04.369Z,16.70
2022-12-08T04:39:51.246Z,16.05
2022-12-08T04:40:38.699Z,15.85
2022-12-08T04:41:25.507Z,15.00
2022-12-08T04:42:12.293Z,15.18
2022-12-08T04:42:59.163Z,16.27
2022-12-08T04:43:45.999Z,15.57
2022-12-08T04:44:32.769Z,15.57
2022-12-08T04:45:19.585Z,16.02
2022-12-08T04:46:08.379Z,15.07
2022-12-08T04:46:55.312Z,15.18
2022-12-08T04:47:43.362Z,15.65
2022-12-08T04:48:30.226Z,16.02
2022-12-08T04:49:17.168Z,15.13
2022-12-08T04:50:06.032Z,15.40
2022-12-08T04:50:53.309Z,15.02
2022-12-08T04:51:40.143Z,15.20
2022-12-08T04:52:27.033Z,14.98
2022-12-08T04:53:14.738Z,14.68
2022-12-08T04:54:01.522Z,14.45
2022-12-08T04:54:48.459Z,14.93
2022-12-08T04:55:35.709Z,14.82
2022-12-08T04:56:22.636Z,14.73
2022-12-08T04:57:09.629Z,14.80
2022-12-08T04:57:56.471Z,14.00
2022-12-08T04:58:43.677Z,14.52
2022-12-08T04:59:30.555Z,14.00
2022-12-08T05:00:17.902Z,14.13
2022-12-08T05:01:04.877Z,14.43
2022-12-08T05:01:51.930Z,15.05
2022-12-08T05:02:38.921Z,14.15
2022-12-08T05:03:28.705Z,14.70
2022-12-08T05:04:15.725Z,14.57
2022-12-08T05:05:02.604Z,15.45
2022-12-08T05:05:49.472Z,15.00
2022-12-08T05:06:36.482Z,15.20
2022-12-08T05:07:23.359Z,13.70
2022-12-08T05:08:10.968Z,15.18
2022-12-08T05:08:57.853Z,15.27
2022-12-08T05:09:45.102Z,14.15
2022-12-08T05:10:32.661Z,15.20
2022-12-08T05:11:19.891Z,14.98
2022-12-08T05:12:06.873Z,14.48
2022-12-08T05:12:53.774Z,14.85
2022-12-08T05:13:40.897Z,15.00
2022-12-08T05:14:27.740Z,14.63
2022-12-08T05:15:14.557Z,15.07
2022-12-08T05:16:10.649Z,15.05
2022-12-08T05:16:57.685Z,14.35
2022-12-08T05:17:44.604Z,14.73
2022-12-08T05:18:31.582Z,15.93
2022-12-08T05:19:18.462Z,14.32
2022-12-08T05:20:06.941Z,14.43
2022-12-08T05:20:53.915Z,14.38
2022-12-08T05:21:41.185Z,14.52
2022-12-08T05:22:27.980Z,15.57
2022-12-08T05:23:14.786Z,15.40
2022-12-08T05:24:01.766Z,14.82
2022-12-08T05:24:48.647Z,15.07
2022-12-08T05:25:35.451Z,15.13
2022-12-08T05:26:22.271Z,16.90
2022-12-08T05:27:10.153Z,15.63
2022-12-08T05:28:17.714Z,14.90
2022-12-08T05:29:04.223Z,15.70
2022-12-08T05:29:51.076Z,15.15
2022-12-08T05:30:37.954Z,14.75
2022-12-08T05:31:25.006Z,15.48
2022-12-08T05:32:11.873Z,15.30
2022-12-08T05:32:58.676Z,15.98
2022-12-08T05:33:45.936Z,15.35
2022-12-08T05:34:32.816Z,14.65
2022-12-08T05:35:19.813Z,14.93
2022-12-08T05:36:07.119Z,15.68
2022-12-08T05:36:53.941Z,14.70
2022-12-08T05:37:40.983Z,15.20
2022-12-08T05:38:27.773Z,14.23
2022-12-08T05:39:15.068Z,15.73
2022-12-08T05:40:02.341Z,15.23
2022-12-08T05:40:49.397Z,14.85
2022-12-08T05:41:36.175Z,15.00
2022-12-08T05:42:24.991Z,15.07
2022-12-08T05:43:12.151Z,15.18
2022-12-08T05:43:59.016Z,15.52
2022-12-08T05:44:45.815Z,15.18
2022-12-08T05:45:34.963Z,14.40
2022-12-08T05:46:22.435Z,14.10
2022-12-08T05:47:09.281Z,14.50
2022-12-08T05:47:56.227Z,15.20
2022-12-08T05:48:43.048Z,13.62
2022-12-08T05:49:29.902Z,14.90
2022-12-08T05:50:16.847Z,15.35
2022-12-08T05:51:03.944Z,15.20
2022-12-08T05:51:50.842Z,14.05
2022-12-08T05:52:37.727Z,15.65
2022-12-08T05:53:24.769Z,13.48
2022-12-08T05:54:11.650Z,13.15
2022-12-08T05:54:58.560Z,15.25
2022-12-08T05:55:45.969Z,14.43
2022-12-08T05:56:32.797Z,13.82
2022-12-08T05:57:19.625Z,14.45
2022-12-08T05:58:08.141Z,13.60
2022-12-08T05:58:55.244Z,13.95
2022-12-08T05:59:42.137Z,14.52
2022-12-08T06:00:29.119Z,14.43
2022-12-08T06:01:27.870Z,13.70
2022-12-08T06:02:14.924Z,13.32
2022-12-08T06:03:02.226Z,15.32
2022-12-08T06:03:49.143Z,13.43
2022-12-08T06:04:36.635Z,14.85
2022-12-08T06:05:23.561Z,13.95
2022-12-08T06:06:10.363Z,13.35
2022-12-08T06:06:57.273Z,13.77
2022-12-08T06:07:44.160Z,13.35
2022-12-08T06:08:31.080Z,12.68
2022-12-08T06:09:17.995Z,14.10
2022-12-08T06:10:05.706Z,13.95
2022-12-08T06:10:52.864Z,13.80
2022-12-08T06:11:39.809Z,15.60
2022-12-08T06:12:26.727Z,15.27
2022-12-08T06:13:14.851Z,13.80
2022-12-08T06:14:02.304Z,13.95
2022-12-08T06:14:49.334Z,14.27
2022-12-08T06:15:37.469Z,13.82
2022-12-08T06:16:27.403Z,14.20
2022-12-08T06:17:14.360Z,15.23
2022-12-08T06:18:01.204Z,13.85
2022-12-08T06:18:48.008Z,14.07
2022-12-08T06:19:35.008Z,12.55
2022-12-08T06:20:21.990Z,14.75
2022-12-08T06:21:10.852Z,14.27
2022-12-08T06:21:57.643Z,13.45
2022-12-08T06:22:44.501Z,13.20
2022-12-08T06:23:31.531Z,14.87
2022-12-08T06:24:18.488Z,14.32
2022-12-08T06:25:09.982Z,13.25
2022-12-08T06:26:01.915Z,13.70
2022-12-08T06:26:48.775Z,13.48
2022-12-08T06:27:35.672Z,13.10
2022-12-08T06:28:22.702Z,12.95
2022-12-08T06:29:09.650Z,14.55
2022-12-08T06:29:56.838Z,14.77
2022-12-08T06:30:43.658Z,15.15
2022-12-08T06:31:30.577Z,14.50
2022-12-08T06:32:20.744Z,15.05
2022-12-08T06:33:09.839Z,15.30
2022-12-08T06:33:56.798Z,14.65
2022-12-08T06:34:43.606Z,15.23
2022-12-08T06:35:30.361Z,15.27
2022-12-08T06:36:19.238Z,15.07
2022-12-08T06:37:06.281Z,15.13
2022-12-08T06:37:53.122Z,14.15
2022-12-08T06:38:43.299Z,15.38
2022-12-08T06:39:30.709Z,14.90
2022-12-08T06:40:17.647Z,14.75
2022-12-08T06:41:05.981Z,15.27
2022-12-08T06:42:11.673Z,14.65
2022-12-08T06:42:58.632Z,14.93
2022-12-08T06:43:45.848Z,14.87
2022-12-08T06:44:32.715Z,14.30
2022-12-08T06:45:20.943Z,15.60
2022-12-08T06:46:10.166Z,15.13
2022-12-08T06:46:57.043Z,14.65
2022-12-08T06:47:44.960Z,15.32
2022-12-08T06:48:31.838Z,15.75
2022-12-08T06:49:18.646Z,18.17
2022-12-08T06:50:09.179Z,15.88
2022-12-08T06:50:55.990Z,14.48
2022-12-08T06:51:42.744Z,14.57
2022-12-08T06:52:29.557Z,15.55
2022-12-08T06:53:18.352Z,14.93
2022-12-08T06:54:05.230Z,14.85
2022-12-08T06:54:52.081Z,15.02
2022-12-08T06:56:01.294Z,15.13
2022-12-08T06:56:48.181Z,15.07
2022-12-08T06:57:35.300Z,15.27
2022-12-08T06:58:22.078Z,14.35
2022-12-08T06:59:08.853Z,16.02
2022-12-08T06:59:55.737Z,14.95
2022-12-08T07:00:43.466Z,14.52
2022-12-08T07:01:30.845Z,14.60
2022-12-08T07:02:17.725Z,14.55
2022-12-08T07:03:04.575Z,13.18
2022-12-08T07:03:51.694Z,13.90
2022-12-08T07:04:38.501Z,15.05
2022-12-08T07:05:25.400Z,14.85
2022-12-08T07:06:17.135Z,14.60
2022-12-08T07:07:04.142Z,15.07
2022-12-08T07:07:51.115Z,15.15
2022-12-08T07:08:37.888Z,13.80
2022-12-08T07:09:24.932Z,13.23
2022-12-08T07:10:11.827Z,14.15
2022-12-08T07:10:58.875Z,13.85
2022-12-08T07:11:45.635Z,14.15
2022-12-08T07:12:32.463Z,13.25
2022-12-08T07:13:19.318Z,12.48
2022-12-08T07:14:06.152Z,13.60
2022-12-08T07:14:53.059Z,12.52
2022-12-08T07:15:39.890Z,13.80
2022-12-08T07:16:26.706Z,14.18
2022-12-08T07:17:13.950Z,12.52
2022-12-08T07:18:00.925Z,13.35
2022-12-08T07:18:47.886Z,12.93
2022-12-08T07:19:34.721Z,12.45
2022-12-08T07:20:21.793Z,12.23
2022-12-08T07:21:13.504Z,13.27
2022-12-08T07:22:00.378Z,12.60
2022-12-08T07:22:53.153Z,12.35
2022-12-08T07:23:40.047Z,12.63
2022-12-08T07:24:26.783Z,13.60
2022-12-08T07:25:13.987Z,13.25
2022-12-08T07:26:02.663Z,12.75
2022-12-08T07:26:49.522Z,13.07
2022-12-08T07:27:36.325Z,13.43
2022-12-08T07:28:25.161Z,13.13
2022-12-08T07:29:12.189Z,13.82
2022-12-08T07:29:59.098Z,12.48
2022-12-08T07:30:46.062Z,12.82
2022-12-08T07:31:33.461Z,12.52
2022-12-08T07:32:20.583Z,11.88
2022-12-08T07:33:07.394Z,13.07
2022-12-08T07:33:55.456Z,13.07
2022-12-08T07:34:42.337Z,12.75
2022-12-08T07:35:29.212Z,13.18
2022-12-08T07:36:16.450Z,13.43
2022-12-08T07:37:03.281Z,13.75
2022-12-08T07:37:50.149Z,13.20
2022-12-08T07:38:36.976Z,12.77
2022-12-08T07:39:23.864Z,13.30
2022-12-08T07:40:11.249Z,12.07
2022-12-08T07:40:58.032Z,11.88
2022-12-08T07:41:44.985Z,12.55
2022-12-08T07:42:31.839Z,13.05
2022-12-08T07:43:19.041Z,12.32
2022-12-08T07:44:05.851Z,12.07
2022-12-08T07:44:52.718Z,12.63
2022-12-08T07:45:41.146Z,13.13
2022-12-08T07:46:28.235Z,12.50
2022-12-08T07:47:15.251Z,13.20
2022-12-08T07:48:02.028Z,13.18
2022-12-08T07:48:48.914Z,13.30
2022-12-08T07:49:35.747Z,13.13
2022-12-08T07:50:22.586Z,13.70
2022-12-08T07:51:11.244Z,12.73
2022-12-08T07:51:58.083Z,12.63
2022-12-08T07:52:44.933Z,13.57
2022-12-08T07:53:32.689Z,13.20
2022-12-08T07:54:21.060Z,12.00
2022-12-08T07:55:08.419Z,12.88
2022-12-08T07:55:55.306Z,12.37
2022-12-08T07:56:42.159Z,11.48
2022-12-08T07:57:28.923Z,12.75
2022-12-08T07:58:15.750Z,12.20
2022-12-08T07:59:03.043Z,12.35
2022-12-08T07:59:49.963Z,11.82
2022-12-08T08:00:37.014Z,13.02
2022-12-08T08:01:33.791Z,13.20
2022-12-08T08:02:24.643Z,11.95
2022-12-08T08:03:12.478Z,11.75
2022-12-08T08:04:04.854Z,11.43
2022-12-08T08:04:52.104Z,11.98
2022-12-08T08:05:39.323Z,12.50
2022-12-08T08:06:26.148Z,11.95
2022-12-08T08:07:13.108Z,12.02
2022-12-08T08:08:00.158Z,10.82
2022-12-08T08:08:47.320Z,12.30
2022-12-08T08:09:34.540Z,11.80
2022-12-08T08:10:21.421Z,11.02
2022-12-08T08:11:15.797Z,11.80
2022-12-08T08:12:30.313Z,11.90
2022-12-08T08:13:13.573Z,10.93
2022-12-08T08:14:00.391Z,11.30
2022-12-08T08:14:47.313Z,11.77
2022-12-08T08:15:34.158Z,11.73
2022-12-08T08:16:21.576Z,10.80
2022-12-08T08:17:08.710Z,11.60
2022-12-08T08:17:55.669Z,11.55
2022-12-08T08:18:43.681Z,10.82
2022-12-08T08:19:30.509Z,10.85
2022-12-08T08:20:18.035Z,11.65
2022-12-08T08:21:16.006Z,12.40
2022-12-08T08:22:11.886Z,14.05
2022-12-08T08:22:58.732Z,16.62
2022-12-08T08:23:45.601Z,14.82
2022-12-08T08:24:32.430Z,16.08
2022-12-08T08:25:22.587Z,15.13
2022-12-08T08:26:09.659Z,15.95
2022-12-08T08:26:56.580Z,15.98
2022-12-08T08:27:43.846Z,16.05
2022-12-08T08:28:31.011Z,15.48
2022-12-08T08:29:19.899Z,15.93
2022-12-08T08:30:09.982Z,16.83
2022-12-08T08:30:57.126Z,14.98
2022-12-08T08:31:44.007Z,15.18
2022-12-08T08:32:34.468Z,15.52
2022-12-08T08:33:21.649Z,14.43
2022-12-08T08:34:09.282Z,15.88
2022-12-08T08:34:56.079Z,15.15
2022-12-08T08:35:42.918Z,15.63
2022-12-08T08:36:29.705Z,16.62
2022-12-08T08:37:16.544Z,16.15
2022-12-08T08:38:03.558Z,14.82
2022-12-08T08:38:51.097Z,15.73
2022-12-08T08:39:38.056Z,14.43
2022-12-08T08:40:25.200Z,14.48
2022-12-08T08:41:12.173Z,14.95
2022-12-08T08:41:59.335Z,14.77
2022-12-08T08:42:46.132Z,14.60
2022-12-08T08:43:37.803Z,14.55
2022-12-08T08:44:25.200Z,14.27
2022-12-08T08:45:14.060Z,13.80
2022-12-08T08:46:01.712Z,14.25
2022-12-08T08:46:48.591Z,13.68
2022-12-08T08:47:35.493Z,13.50
2022-12-08T08:48:22.279Z,13.82
2022-12-08T08:49:09.011Z,13.30
2022-12-08T08:49:55.801Z,13.20
2022-12-08T08:50:42.699Z,14.05
2022-12-08T08:51:29.549Z,14.02
2022-12-08T08:52:16.514Z,14.93
2022-12-08T08:53:03.282Z,14.27
2022-12-08T08:53:50.152Z,15.27
2022-12-08T08:54:37.043Z,14.18
2022-12-08T08:55:23.840Z,14.75
2022-12-08T08:56:12.059Z,14.23
2022-12-08T08:57:00.394Z,14.55
2022-12-08T08:57:47.206Z,14.70
2022-12-08T08:58:34.632Z,14.30
2022-12-08T08:59:21.539Z,14.40
2022-12-08T09:00:10.400Z,13.75
2022-12-08T09:00:58.622Z,11.02
2022-12-08T09:01:45.547Z,12.57
2022-12-08T09:02:32.468Z,12.25
2022-12-08T09:03:19.361Z,12.68
2022-12-08T09:04:06.280Z,12.80
2022-12-08T09:04:53.464Z,13.65
2022-12-08T09:05:41.630Z,14.02
2022-12-08T09:06:29.707Z,13.57
2022-12-08T09:07:16.837Z,13.98
2022-12-08T09:08:03.888Z,14.55
2022-12-08T09:08:51.321Z,13.30
2022-12-08T09:09:38.913Z,13.95
2022-12-08T09:10:25.840Z,12.57
2022-12-08T09:11:13.229Z,13.10
2022-12-08T09:12:00.099Z,14.23
2022-12-08T09:12:47.189Z,13.75
2022-12-08T09:13:34.294Z,13.30
2022-12-08T09:14:21.446Z,14.75
2022-12-08T09:15:09.557Z,14.98
2022-12-08T09:15:56.698Z,16.48
2022-12-08T09:16:43.826Z,17.45
2022-12-08T09:17:30.882Z,15.63
2022-12-08T09:18:17.645Z,17.50
2022-12-08T09:19:04.507Z,18.55
2022-12-08T09:19:51.303Z,18.20
2022-12-08T09:20:38.374Z,17.42
2022-12-08T09:21:27.268Z,17.50
2022-12-08T09:22:15.053Z,18.37
2022-12-08T09:23:02.632Z,16.85
2022-12-08T09:23:58.644Z,17.33
2022-12-08T09:24:45.551Z,16.45
2022-12-08T09:25:32.381Z,16.52
2022-12-08T09:26:22.764Z,15.70
2022-12-08T09:27:09.582Z,17.10
2022-12-08T09:27:56.498Z,16.85
2022-12-08T09:28:46.856Z,17.23
2022-12-08T09:29:36.223Z,17.33
2022-12-08T09:30:23.533Z,17.23
2022-12-08T09:31:10.713Z,16.92
2022-12-08T09:31:58.016Z,16.65
2022-12-08T09:32:45.333Z,17.00
2022-12-08T09:33:32.921Z,16.33
2022-12-08T09:34:21.937Z,16.67
2022-12-08T09:35:09.056Z,16.23
2022-12-08T09:35:55.962Z,16.62
2022-12-08T09:36:42.785Z,16.33
2022-12-08T09:37:29.575Z,16.30
2022-12-08T09:38:16.387Z,16.92
2022-12-08T09:39:03.631Z,15.85
2022-12-08T09:39:50.626Z,15.90
2022-12-08T09:40:45.226Z,15.43
2022-12-08T09:41:43.355Z,16.95
2022-12-08T09:42:43.286Z,16.17
2022-12-08T09:43:35.986Z,16.12
2022-12-08T09:44:44.732Z,17.25
2022-12-08T09:45:35.176Z,17.40
2022-12-08T09:46:22.290Z,17.30
2022-12-08T09:47:17.034Z,17.92
2022-12-08T09:48:12.507Z,17.58
2022-12-08T09:49:00.555Z,17.65
2022-12-08T09:49:59.145Z,19.02
2022-12-08T09:50:50.497Z,20.35
2022-12-08T09:51:39.697Z,23.60
2022-12-08T09:52:34.297Z,21.33
2022-12-08T09:53:35.957Z,23.02
2022-12-08T09:54:33.600Z,25.17
2022-12-08T09:55:25.714Z,23.27
2022-12-08T09:56:30.489Z,29.35
2022-12-08T09:57:19.882Z,39.03
2022-12-08T09:58:14.840Z,43.15
2022-12-08T09:59:22.328Z,45.03
2022-12-08T10:00:14.383Z,47.60
2022-12-08T10:01:01.407Z,37.53
2022-12-08T10:01:48.861Z,38.95
2022-12-08T10:02:35.790Z,36.03
2022-12-08T10:03:25.804Z,34.47
2022-12-08T10:04:25.082Z,29.35
2022-12-08T10:05:14.988Z,25.30
2022-12-08T10:06:11.064Z,24.02
2022-12-08T10:07:28.001Z,23.20
2022-12-08T10:08:26.670Z,22.08
2022-12-08T10:09:34.905Z,22.73
2022-12-08T10:10:42.355Z,20.27
2022-12-08T10:12:00.855Z,20.20
2022-12-08T10:13:16.822Z,21.27
2022-12-08T10:14:29.297Z,19.98
2022-12-08T10:15:27.203Z,20.90
2022-12-08T10:16:37.340Z,20.42
2022-12-08T10:17:26.961Z,16.15
2022-12-08T10:18:30.024Z,16.27
2022-12-08T10:19:24.057Z,21.98
2022-12-08T10:20:17.412Z,21.05
2022-12-08T10:21:19.379Z,22.05
2022-12-08T10:22:44.339Z,20.35
2022-12-08T10:23:39.163Z,19.87
2022-12-08T10:24:37.689Z,20.10
2022-12-08T10:25:36.265Z,22.27
2022-12-08T10:26:23.110Z,20.65
2022-12-08T10:27:13.753Z,21.35
2022-12-08T10:28:48.489Z,21.77
2022-12-08T10:29:35.376Z,21.65
2022-12-08T10:30:22.827Z,23.02
2022-12-08T10:31:23.911Z,22.20
2022-12-08T10:32:18.710Z,21.42
2022-12-08T10:33:05.996Z,22.08
2022-12-08T10:34:00.723Z,22.27
2022-12-08T10:35:12.314Z,23.40
2022-12-08T10:36:03.153Z,21.17
2022-12-08T10:36:58.057Z,22.42
2022-12-08T10:38:02.334Z,23.02
2022-12-08T10:38:49.203Z,23.92
2022-12-08T10:39:44.009Z,22.27
2022-12-08T10:40:42.168Z,21.65
2022-12-08T10:41:32.313Z,20.65
2022-12-08T10:42:22.237Z,22.45
2022-12-08T10:43:15.495Z,23.12